sensor_id;sensor_type;location;lat;lon;timestamp;P1;durP1;ratioP1;P2;durP2;ratioP2
68140;SDS011;54941;52.220;104.306;2023-09-18T00:00:49;5.85;;;3.45;;
68140;SDS011;54941;52.220;104.306;2023-09-18T00:03:16;21.45;;;4.40;;
68140;SDS011;54941;52.220;104.306;2023-09-18T00:05:42;10.98;;;3.67;;
68140;SDS011;54941;52.220;104.306;2023-09-18T00:08:09;13.93;;;3.90;;
68140;SDS011;54941;52.220;104.306;2023-09-18T00:10:35;12.80;;;3.90;;
68140;SDS011;54941;52.220;104.306;2023-09-18T00:13:03;7.07;;;3.95;;
68140;SDS011;54941;52.220;104.306;2023-09-18T00:15:29;5.20;;;2.88;;
68140;SDS011;54941;52.220;104.306;2023-09-18T00:17:56;7.95;;;3.65;;
68140;SDS011;54941;52.220;104.306;2023-09-18T00:20:22;5.57;;;2.60;;
68140;SDS011;54941;52.220;104.306;2023-09-18T00:22:48;6.53;;;2.45;;
68140;SDS011;54941;52.220;104.306;2023-09-18T00:25:15;4.22;;;2.80;;
68140;SDS011;54941;52.220;104.306;2023-09-18T00:27:41;4.78;;;2.35;;
68140;SDS011;54941;52.220;104.306;2023-09-18T00:30:09;6.10;;;2.97;;
68140;SDS011;54941;52.220;104.306;2023-09-18T00:32:37;5.65;;;2.85;;
68140;SDS011;54941;52.220;104.306;2023-09-18T00:35:04;7.50;;;3.35;;
68140;SDS011;54941;52.220;104.306;2023-09-18T00:37:31;6.35;;;3.10;;
68140;SDS011;54941;52.220;104.306;2023-09-18T00:39:57;6.18;;;3.10;;
68140;SDS011;54941;52.220;104.306;2023-09-18T00:42:23;5.57;;;3.65;;
68140;SDS011;54941;52.220;104.306;2023-09-18T00:44:50;5.72;;;3.10;;
68140;SDS011;54941;52.220;104.306;2023-09-18T00:47:21;5.65;;;2.65;;
68140;SDS011;54941;52.220;104.306;2023-09-18T00:49:47;5.35;;;3.47;;
68140;SDS011;54941;52.220;104.306;2023-09-18T00:52:15;6.72;;;2.92;;
68140;SDS011;54941;52.220;104.306;2023-09-18T00:54:43;5.05;;;2.92;;
68140;SDS011;54941;52.220;104.306;2023-09-18T00:57:10;7.40;;;3.25;;
68140;SDS011;54941;52.220;104.306;2023-09-18T00:59:37;7.18;;;3.92;;
68140;SDS011;54941;52.220;104.306;2023-09-18T01:02:03;6.22;;;3.55;;
68140;SDS011;54941;52.220;104.306;2023-09-18T01:04:31;6.97;;;3.80;;
68140;SDS011;54941;52.220;104.306;2023-09-18T01:06:59;7.82;;;4.70;;
68140;SDS011;54941;52.220;104.306;2023-09-18T01:09:25;8.48;;;4.40;;
68140;SDS011;54941;52.220;104.306;2023-09-18T01:11:54;8.73;;;4.47;;
68140;SDS011;54941;52.220;104.306;2023-09-18T01:14:29;6.90;;;4.25;;
68140;SDS011;54941;52.220;104.306;2023-09-18T01:16:59;7.10;;;4.15;;
68140;SDS011;54941;52.220;104.306;2023-09-18T01:19:37;6.72;;;3.88;;
68140;SDS011;54941;52.220;104.306;2023-09-18T01:22:04;5.93;;;3.83;;
68140;SDS011;54941;52.220;104.306;2023-09-18T01:24:33;7.60;;;3.55;;
68140;SDS011;54941;52.220;104.306;2023-09-18T01:27:00;8.07;;;3.60;;
68140;SDS011;54941;52.220;104.306;2023-09-18T01:29:27;6.18;;;3.72;;
68140;SDS011;54941;52.220;104.306;2023-09-18T01:31:53;6.85;;;4.00;;
68140;SDS011;54941;52.220;104.306;2023-09-18T01:34:20;8.20;;;3.95;;
68140;SDS011;54941;52.220;104.306;2023-09-18T01:36:49;9.95;;;4.45;;
68140;SDS011;54941;52.220;104.306;2023-09-18T01:39:16;8.43;;;4.18;;
68140;SDS011;54941;52.220;104.306;2023-09-18T01:41:46;6.00;;;4.00;;
68140;SDS011;54941;52.220;104.306;2023-09-18T01:44:13;10.10;;;4.10;;
68140;SDS011;54941;52.220;104.306;2023-09-18T01:46:40;8.35;;;4.43;;
68140;SDS011;54941;52.220;104.306;2023-09-18T01:49:07;7.13;;;4.65;;
68140;SDS011;54941;52.220;104.306;2023-09-18T01:51:35;8.05;;;4.00;;
68140;SDS011;54941;52.220;104.306;2023-09-18T01:54:01;8.90;;;4.40;;
68140;SDS011;54941;52.220;104.306;2023-09-18T01:56:28;9.98;;;4.75;;
68140;SDS011;54941;52.220;104.306;2023-09-18T01:58:55;8.15;;;4.53;;
68140;SDS011;54941;52.220;104.306;2023-09-18T02:01:22;9.90;;;4.57;;
68140;SDS011;54941;52.220;104.306;2023-09-18T02:03:48;8.40;;;4.18;;
68140;SDS011;54941;52.220;104.306;2023-09-18T02:06:14;7.28;;;4.50;;
68140;SDS011;54941;52.220;104.306;2023-09-18T02:08:41;8.45;;;3.92;;
68140;SDS011;54941;52.220;104.306;2023-09-18T02:11:07;9.38;;;4.28;;
68140;SDS011;54941;52.220;104.306;2023-09-18T02:13:33;8.55;;;3.88;;
68140;SDS011;54941;52.220;104.306;2023-09-18T02:16:01;7.90;;;4.25;;
68140;SDS011;54941;52.220;104.306;2023-09-18T02:18:27;6.50;;;4.32;;
68140;SDS011;54941;52.220;104.306;2023-09-18T02:20:54;9.43;;;3.85;;
68140;SDS011;54941;52.220;104.306;2023-09-18T02:23:21;8.18;;;4.22;;
68140;SDS011;54941;52.220;104.306;2023-09-18T02:26:07;9.40;;;3.72;;
68140;SDS011;54941;52.220;104.306;2023-09-18T02:28:33;9.55;;;4.63;;
68140;SDS011;54941;52.220;104.306;2023-09-18T02:31:01;10.90;;;4.68;;
68140;SDS011;54941;52.220;104.306;2023-09-18T02:33:27;7.38;;;3.65;;
68140;SDS011;54941;52.220;104.306;2023-09-18T02:35:54;6.53;;;4.05;;
68140;SDS011;54941;52.220;104.306;2023-09-18T02:38:20;6.75;;;3.80;;
68140;SDS011;54941;52.220;104.306;2023-09-18T02:40:46;6.15;;;3.70;;
68140;SDS011;54941;52.220;104.306;2023-09-18T02:43:13;9.30;;;3.88;;
68140;SDS011;54941;52.220;104.306;2023-09-18T02:45:39;7.10;;;3.45;;
68140;SDS011;54941;52.220;104.306;2023-09-18T02:48:07;11.35;;;4.30;;
68140;SDS011;54941;52.220;104.306;2023-09-18T02:50:34;7.90;;;3.83;;
68140;SDS011;54941;52.220;104.306;2023-09-18T02:53:00;8.02;;;4.00;;
68140;SDS011;54941;52.220;104.306;2023-09-18T02:55:26;8.80;;;4.43;;
68140;SDS011;54941;52.220;104.306;2023-09-18T02:57:53;9.27;;;3.90;;
68140;SDS011;54941;52.220;104.306;2023-09-18T03:00:19;9.05;;;4.70;;
68140;SDS011;54941;52.220;104.306;2023-09-18T03:02:45;9.35;;;4.22;;
68140;SDS011;54941;52.220;104.306;2023-09-18T03:05:13;7.40;;;3.83;;
68140;SDS011;54941;52.220;104.306;2023-09-18T03:07:39;9.15;;;3.35;;
68140;SDS011;54941;52.220;104.306;2023-09-18T03:10:06;8.20;;;3.50;;
68140;SDS011;54941;52.220;104.306;2023-09-18T03:12:33;10.10;;;4.03;;
68140;SDS011;54941;52.220;104.306;2023-09-18T03:14:59;10.15;;;4.18;;
68140;SDS011;54941;52.220;104.306;2023-09-18T03:17:26;8.25;;;3.55;;
68140;SDS011;54941;52.220;104.306;2023-09-18T03:19:52;6.28;;;3.30;;
68140;SDS011;54941;52.220;104.306;2023-09-18T03:22:20;7.20;;;3.33;;
68140;SDS011;54941;52.220;104.306;2023-09-18T03:24:46;7.38;;;3.72;;
68140;SDS011;54941;52.220;104.306;2023-09-18T03:27:13;6.00;;;3.55;;
68140;SDS011;54941;52.220;104.306;2023-09-18T03:29:39;8.57;;;3.40;;
68140;SDS011;54941;52.220;104.306;2023-09-18T03:32:05;8.13;;;3.83;;
68140;SDS011;54941;52.220;104.306;2023-09-18T03:34:32;7.57;;;3.60;;
68140;SDS011;54941;52.220;104.306;2023-09-18T03:36:58;8.38;;;3.90;;
68140;SDS011;54941;52.220;104.306;2023-09-18T03:39:26;9.25;;;4.30;;
68140;SDS011;54941;52.220;104.306;2023-09-18T03:41:52;10.18;;;3.53;;
68140;SDS011;54941;52.220;104.306;2023-09-18T03:44:19;9.93;;;4.28;;
68140;SDS011;54941;52.220;104.306;2023-09-18T03:46:45;7.75;;;3.97;;
68140;SDS011;54941;52.220;104.306;2023-09-18T03:49:11;8.93;;;3.90;;
68140;SDS011;54941;52.220;104.306;2023-09-18T03:51:38;10.77;;;3.83;;
68140;SDS011;54941;52.220;104.306;2023-09-18T03:54:04;9.68;;;4.03;;
68140;SDS011;54941;52.220;104.306;2023-09-18T03:56:32;11.23;;;4.75;;
68140;SDS011;54941;52.220;104.306;2023-09-18T03:58:58;8.63;;;4.55;;
68140;SDS011;54941;52.220;104.306;2023-09-18T04:01:25;10.75;;;4.40;;
68140;SDS011;54941;52.220;104.306;2023-09-18T04:03:53;14.75;;;5.18;;
68140;SDS011;54941;52.220;104.306;2023-09-18T04:06:20;11.00;;;5.22;;
68140;SDS011;54941;52.220;104.306;2023-09-18T04:08:47;9.27;;;4.20;;
68140;SDS011;54941;52.220;104.306;2023-09-18T04:11:13;10.55;;;3.90;;
68140;SDS011;54941;52.220;104.306;2023-09-18T04:13:41;10.52;;;5.00;;
68140;SDS011;54941;52.220;104.306;2023-09-18T04:16:07;10.48;;;4.38;;
68140;SDS011;54941;52.220;104.306;2023-09-18T04:18:33;12.90;;;4.63;;
68140;SDS011;54941;52.220;104.306;2023-09-18T04:21:00;14.25;;;4.32;;
68140;SDS011;54941;52.220;104.306;2023-09-18T04:23:29;8.93;;;3.22;;
68140;SDS011;54941;52.220;104.306;2023-09-18T04:25:55;7.78;;;2.90;;
68140;SDS011;54941;52.220;104.306;2023-09-18T04:28:22;13.85;;;3.60;;
68140;SDS011;54941;52.220;104.306;2023-09-18T04:30:50;8.95;;;2.95;;
68140;SDS011;54941;52.220;104.306;2023-09-18T04:33:16;7.10;;;3.15;;
68140;SDS011;54941;52.220;104.306;2023-09-18T04:35:43;6.38;;;2.92;;
68140;SDS011;54941;52.220;104.306;2023-09-18T04:38:09;5.20;;;2.50;;
68140;SDS011;54941;52.220;104.306;2023-09-18T04:40:36;4.95;;;2.53;;
68140;SDS011;54941;52.220;104.306;2023-09-18T04:43:02;5.32;;;2.47;;
68140;SDS011;54941;52.220;104.306;2023-09-18T04:45:29;7.40;;;2.47;;
68140;SDS011;54941;52.220;104.306;2023-09-18T04:47:57;6.60;;;2.50;;
68140;SDS011;54941;52.220;104.306;2023-09-18T04:50:23;5.32;;;2.22;;
68140;SDS011;54941;52.220;104.306;2023-09-18T04:52:50;4.40;;;2.00;;
68140;SDS011;54941;52.220;104.306;2023-09-18T04:55:16;3.85;;;2.22;;
68140;SDS011;54941;52.220;104.306;2023-09-18T04:57:42;4.70;;;1.80;;
68140;SDS011;54941;52.220;104.306;2023-09-18T05:00:09;5.05;;;2.10;;
68140;SDS011;54941;52.220;104.306;2023-09-18T05:02:35;3.75;;;2.10;;
68140;SDS011;54941;52.220;104.306;2023-09-18T05:05:03;6.05;;;2.10;;
68140;SDS011;54941;52.220;104.306;2023-09-18T05:07:31;6.53;;;2.33;;
68140;SDS011;54941;52.220;104.306;2023-09-18T05:09:57;6.95;;;2.45;;
68140;SDS011;54941;52.220;104.306;2023-09-18T05:12:23;5.30;;;2.30;;
68140;SDS011;54941;52.220;104.306;2023-09-18T05:14:52;5.20;;;2.55;;
68140;SDS011;54941;52.220;104.306;2023-09-18T05:17:39;4.22;;;2.38;;
68140;SDS011;54941;52.220;104.306;2023-09-18T05:20:09;4.20;;;2.40;;
68140;SDS011;54941;52.220;104.306;2023-09-18T05:22:36;4.20;;;2.30;;
68140;SDS011;54941;52.220;104.306;2023-09-18T05:25:02;4.30;;;2.40;;
68140;SDS011;54941;52.220;104.306;2023-09-18T05:27:29;7.53;;;2.40;;
68140;SDS011;54941;52.220;104.306;2023-09-18T05:29:55;7.05;;;2.70;;
68140;SDS011;54941;52.220;104.306;2023-09-18T05:32:23;4.43;;;2.45;;
68140;SDS011;54941;52.220;104.306;2023-09-18T05:34:50;9.45;;;2.58;;
68140;SDS011;54941;52.220;104.306;2023-09-18T05:37:17;23.17;;;4.13;;
68140;SDS011;54941;52.220;104.306;2023-09-18T05:39:44;3.83;;;2.15;;
68140;SDS011;54941;52.220;104.306;2023-09-18T05:42:10;9.20;;;2.30;;
68140;SDS011;54941;52.220;104.306;2023-09-18T05:44:39;4.07;;;2.28;;
68140;SDS011;54941;52.220;104.306;2023-09-18T05:47:05;5.05;;;2.10;;
68140;SDS011;54941;52.220;104.306;2023-09-18T05:49:32;4.97;;;2.30;;
68140;SDS011;54941;52.220;104.306;2023-09-18T05:51:58;5.47;;;2.70;;
68140;SDS011;54941;52.220;104.306;2023-09-18T05:54:26;4.50;;;2.58;;
68140;SDS011;54941;52.220;104.306;2023-09-18T05:56:52;5.22;;;2.35;;
68140;SDS011;54941;52.220;104.306;2023-09-18T05:59:18;4.68;;;2.72;;
68140;SDS011;54941;52.220;104.306;2023-09-18T06:01:45;4.80;;;2.30;;
68140;SDS011;54941;52.220;104.306;2023-09-18T06:04:11;7.93;;;3.10;;
68140;SDS011;54941;52.220;104.306;2023-09-18T06:06:37;5.43;;;2.60;;
68140;SDS011;54941;52.220;104.306;2023-09-18T06:09:04;5.15;;;2.40;;
68140;SDS011;54941;52.220;104.306;2023-09-18T06:11:32;5.10;;;2.60;;
68140;SDS011;54941;52.220;104.306;2023-09-18T06:13:58;4.43;;;1.90;;
68140;SDS011;54941;52.220;104.306;2023-09-18T06:16:24;3.97;;;2.55;;
68140;SDS011;54941;52.220;104.306;2023-09-18T06:18:51;4.93;;;2.10;;
68140;SDS011;54941;52.220;104.306;2023-09-18T06:21:17;4.80;;;2.40;;
68140;SDS011;54941;52.220;104.306;2023-09-18T06:23:43;4.57;;;2.28;;
68140;SDS011;54941;52.220;104.306;2023-09-18T06:26:10;7.05;;;2.80;;
68140;SDS011;54941;52.220;104.306;2023-09-18T06:28:38;4.10;;;2.30;;
68140;SDS011;54941;52.220;104.306;2023-09-18T06:31:04;4.35;;;2.53;;
68140;SDS011;54941;52.220;104.306;2023-09-18T06:33:30;5.28;;;2.78;;
68140;SDS011;54941;52.220;104.306;2023-09-18T06:35:57;5.18;;;2.90;;
68140;SDS011;54941;52.220;104.306;2023-09-18T06:38:23;4.10;;;2.40;;
68140;SDS011;54941;52.220;104.306;2023-09-18T06:40:49;6.00;;;2.50;;
68140;SDS011;54941;52.220;104.306;2023-09-18T06:43:15;5.10;;;2.22;;
68140;SDS011;54941;52.220;104.306;2023-09-18T06:45:43;5.43;;;2.50;;
68140;SDS011;54941;52.220;104.306;2023-09-18T06:48:10;5.35;;;2.78;;
68140;SDS011;54941;52.220;104.306;2023-09-18T06:50:36;5.97;;;2.53;;
68140;SDS011;54941;52.220;104.306;2023-09-18T06:53:03;4.90;;;2.72;;
68140;SDS011;54941;52.220;104.306;2023-09-18T06:55:29;4.72;;;2.20;;
68140;SDS011;54941;52.220;104.306;2023-09-18T06:57:55;4.25;;;2.35;;
68140;SDS011;54941;52.220;104.306;2023-09-18T07:00:22;4.15;;;2.63;;
68140;SDS011;54941;52.220;104.306;2023-09-18T07:02:50;5.22;;;2.70;;
68140;SDS011;54941;52.220;104.306;2023-09-18T07:05:16;4.40;;;2.85;;
68140;SDS011;54941;52.220;104.306;2023-09-18T07:07:42;4.30;;;2.33;;
68140;SDS011;54941;52.220;104.306;2023-09-18T07:10:09;5.95;;;2.63;;
68140;SDS011;54941;52.220;104.306;2023-09-18T07:12:35;4.78;;;2.65;;
68140;SDS011;54941;52.220;104.306;2023-09-18T07:15:01;8.68;;;2.83;;
68140;SDS011;54941;52.220;104.306;2023-09-18T07:17:30;6.85;;;3.25;;
68140;SDS011;54941;52.220;104.306;2023-09-18T07:19:58;5.53;;;3.05;;
68140;SDS011;54941;52.220;104.306;2023-09-18T07:22:24;6.13;;;2.90;;
68140;SDS011;54941;52.220;104.306;2023-09-18T07:24:51;5.10;;;2.60;;
68140;SDS011;54941;52.220;104.306;2023-09-18T07:27:17;6.80;;;2.58;;
68140;SDS011;54941;52.220;104.306;2023-09-18T07:29:43;5.90;;;2.70;;
68140;SDS011;54941;52.220;104.306;2023-09-18T07:32:09;5.88;;;3.30;;
68140;SDS011;54941;52.220;104.306;2023-09-18T07:34:36;4.85;;;2.70;;
68140;SDS011;54941;52.220;104.306;2023-09-18T07:37:04;4.65;;;2.58;;
68140;SDS011;54941;52.220;104.306;2023-09-18T07:39:30;7.68;;;3.00;;
68140;SDS011;54941;52.220;104.306;2023-09-18T07:41:56;6.03;;;3.40;;
68140;SDS011;54941;52.220;104.306;2023-09-18T07:44:23;7.22;;;3.65;;
68140;SDS011;54941;52.220;104.306;2023-09-18T07:46:49;6.93;;;3.17;;
68140;SDS011;54941;52.220;104.306;2023-09-18T07:49:16;5.80;;;3.05;;
68140;SDS011;54941;52.220;104.306;2023-09-18T07:51:43;4.18;;;2.90;;
68140;SDS011;54941;52.220;104.306;2023-09-18T07:54:13;4.80;;;2.97;;
68140;SDS011;54941;52.220;104.306;2023-09-18T07:56:40;4.45;;;2.72;;
68140;SDS011;54941;52.220;104.306;2023-09-18T07:59:06;5.88;;;3.13;;
68140;SDS011;54941;52.220;104.306;2023-09-18T08:01:32;5.22;;;3.50;;
68140;SDS011;54941;52.220;104.306;2023-09-18T08:03:59;5.80;;;3.10;;
68140;SDS011;54941;52.220;104.306;2023-09-18T08:06:25;5.00;;;3.35;;
68140;SDS011;54941;52.220;104.306;2023-09-18T08:08:51;5.15;;;2.67;;
68140;SDS011;54941;52.220;104.306;2023-09-18T08:11:19;5.68;;;3.10;;
68140;SDS011;54941;52.220;104.306;2023-09-18T08:13:47;4.32;;;2.53;;
68140;SDS011;54941;52.220;104.306;2023-09-18T08:16:15;6.40;;;3.13;;
68140;SDS011;54941;52.220;104.306;2023-09-18T08:18:42;5.38;;;2.78;;
68140;SDS011;54941;52.220;104.306;2023-09-18T08:21:08;4.75;;;2.95;;
68140;SDS011;54941;52.220;104.306;2023-09-18T08:23:35;4.72;;;3.00;;
68140;SDS011;54941;52.220;104.306;2023-09-18T08:26:01;5.28;;;3.13;;
68140;SDS011;54941;52.220;104.306;2023-09-18T08:28:29;6.30;;;3.50;;
68140;SDS011;54941;52.220;104.306;2023-09-18T08:30:55;5.43;;;3.65;;
68140;SDS011;54941;52.220;104.306;2023-09-18T08:33:22;8.30;;;3.30;;
68140;SDS011;54941;52.220;104.306;2023-09-18T08:35:48;6.47;;;3.28;;
68140;SDS011;54941;52.220;104.306;2023-09-18T08:38:14;6.32;;;3.13;;
68140;SDS011;54941;52.220;104.306;2023-09-18T08:40:41;5.22;;;3.50;;
68140;SDS011;54941;52.220;104.306;2023-09-18T08:43:07;5.32;;;3.05;;
68140;SDS011;54941;52.220;104.306;2023-09-18T08:45:38;7.22;;;3.25;;
68140;SDS011;54941;52.220;104.306;2023-09-18T08:48:11;6.55;;;3.30;;
68140;SDS011;54941;52.220;104.306;2023-09-18T08:50:38;7.35;;;3.30;;
68140;SDS011;54941;52.220;104.306;2023-09-18T08:53:05;5.15;;;3.42;;
68140;SDS011;54941;52.220;104.306;2023-09-18T08:55:32;5.65;;;3.58;;
68140;SDS011;54941;52.220;104.306;2023-09-18T08:57:59;6.88;;;3.35;;
68140;SDS011;54941;52.220;104.306;2023-09-18T09:00:26;11.48;;;4.80;;
68140;SDS011;54941;52.220;104.306;2023-09-18T09:02:54;10.18;;;4.15;;
68140;SDS011;54941;52.220;104.306;2023-09-18T09:05:21;9.45;;;3.58;;
68140;SDS011;54941;52.220;104.306;2023-09-18T09:07:48;9.02;;;3.33;;
68140;SDS011;54941;52.220;104.306;2023-09-18T09:10:15;10.73;;;3.90;;
68140;SDS011;54941;52.220;104.306;2023-09-18T09:12:52;7.18;;;3.20;;
68140;SDS011;54941;52.220;104.306;2023-09-18T09:15:19;14.23;;;3.47;;
68140;SDS011;54941;52.220;104.306;2023-09-18T09:17:49;8.70;;;3.63;;
68140;SDS011;54941;52.220;104.306;2023-09-18T09:20:18;10.20;;;3.67;;
68140;SDS011;54941;52.220;104.306;2023-09-18T09:22:45;8.23;;;3.22;;
68140;SDS011;54941;52.220;104.306;2023-09-18T09:25:24;12.00;;;4.13;;
68140;SDS011;54941;52.220;104.306;2023-09-18T09:27:51;10.38;;;4.90;;
68140;SDS011;54941;52.220;104.306;2023-09-18T09:30:18;6.15;;;2.70;;
68140;SDS011;54941;52.220;104.306;2023-09-18T09:32:47;6.63;;;2.60;;
68140;SDS011;54941;52.220;104.306;2023-09-18T09:35:20;7.00;;;3.15;;
68140;SDS011;54941;52.220;104.306;2023-09-18T09:37:47;4.70;;;2.53;;
68140;SDS011;54941;52.220;104.306;2023-09-18T09:40:14;5.72;;;3.20;;
68140;SDS011;54941;52.220;104.306;2023-09-18T09:42:40;6.32;;;2.78;;
68140;SDS011;54941;52.220;104.306;2023-09-18T09:45:10;6.75;;;2.78;;
68140;SDS011;54941;52.220;104.306;2023-09-18T09:47:38;6.10;;;3.33;;
68140;SDS011;54941;52.220;104.306;2023-09-18T09:50:08;5.93;;;3.30;;
68140;SDS011;54941;52.220;104.306;2023-09-18T09:52:39;5.22;;;3.30;;
68140;SDS011;54941;52.220;104.306;2023-09-18T09:55:13;7.22;;;2.97;;
68140;SDS011;54941;52.220;104.306;2023-09-18T09:57:48;4.72;;;3.15;;
68140;SDS011;54941;52.220;104.306;2023-09-18T10:00:15;5.68;;;2.80;;
68140;SDS011;54941;52.220;104.306;2023-09-18T10:02:42;5.53;;;3.00;;
68140;SDS011;54941;52.220;104.306;2023-09-18T10:05:08;7.28;;;3.70;;
68140;SDS011;54941;52.220;104.306;2023-09-18T10:07:36;9.20;;;4.00;;
68140;SDS011;54941;52.220;104.306;2023-09-18T10:12:30;6.13;;;2.80;;
68140;SDS011;54941;52.220;104.306;2023-09-18T10:14:56;11.32;;;4.07;;
68140;SDS011;54941;52.220;104.306;2023-09-18T10:17:23;12.80;;;4.32;;
68140;SDS011;54941;52.220;104.306;2023-09-18T10:19:52;12.65;;;4.85;;
68140;SDS011;54941;52.220;104.306;2023-09-18T10:22:28;14.65;;;4.13;;
68140;SDS011;54941;52.220;104.306;2023-09-18T10:24:59;13.15;;;4.00;;
68140;SDS011;54941;52.220;104.306;2023-09-18T10:27:34;13.38;;;3.97;;
68140;SDS011;54941;52.220;104.306;2023-09-18T10:30:02;12.55;;;4.28;;
68140;SDS011;54941;52.220;104.306;2023-09-18T10:32:31;9.30;;;3.88;;
68140;SDS011;54941;52.220;104.306;2023-09-18T10:34:58;9.70;;;3.70;;
68140;SDS011;54941;52.220;104.306;2023-09-18T10:37:25;7.50;;;3.50;;
68140;SDS011;54941;52.220;104.306;2023-09-18T10:39:54;7.60;;;3.72;;
68140;SDS011;54941;52.220;104.306;2023-09-18T10:42:23;5.88;;;3.10;;
68140;SDS011;54941;52.220;104.306;2023-09-18T10:44:50;8.98;;;3.78;;
68140;SDS011;54941;52.220;104.306;2023-09-18T10:47:17;10.68;;;3.83;;
68140;SDS011;54941;52.220;104.306;2023-09-18T10:49:44;7.93;;;3.92;;
68140;SDS011;54941;52.220;104.306;2023-09-18T10:52:11;7.68;;;4.00;;
68140;SDS011;54941;52.220;104.306;2023-09-18T10:54:37;11.90;;;6.82;;
68140;SDS011;54941;52.220;104.306;2023-09-18T10:57:04;10.88;;;4.40;;
68140;SDS011;54941;52.220;104.306;2023-09-18T10:59:32;9.73;;;4.25;;
68140;SDS011;54941;52.220;104.306;2023-09-18T11:02:02;14.20;;;4.70;;
68140;SDS011;54941;52.220;104.306;2023-09-18T11:04:28;11.23;;;4.20;;
68140;SDS011;54941;52.220;104.306;2023-09-18T11:07:01;9.68;;;5.47;;
68140;SDS011;54941;52.220;104.306;2023-09-18T11:09:28;10.07;;;5.10;;
68140;SDS011;54941;52.220;104.306;2023-09-18T11:12:05;10.30;;;5.07;;
68140;SDS011;54941;52.220;104.306;2023-09-18T11:14:43;11.80;;;5.53;;
68140;SDS011;54941;52.220;104.306;2023-09-18T11:20:04;10.90;;;5.82;;
68140;SDS011;54941;52.220;104.306;2023-09-18T11:22:31;10.10;;;5.90;;
68140;SDS011;54941;52.220;104.306;2023-09-18T11:28:01;12.02;;;8.50;;
68140;SDS011;54941;52.220;104.306;2023-09-18T11:30:29;10.80;;;5.13;;
68140;SDS011;54941;52.220;104.306;2023-09-18T11:32:56;9.93;;;5.57;;
68140;SDS011;54941;52.220;104.306;2023-09-18T11:38:03;13.07;;;7.20;;
68140;SDS011;54941;52.220;104.306;2023-09-18T11:40:31;13.23;;;7.45;;
68140;SDS011;54941;52.220;104.306;2023-09-18T11:45:50;12.85;;;7.22;;
68140;SDS011;54941;52.220;104.306;2023-09-18T11:48:17;16.05;;;7.53;;
68140;SDS011;54941;52.220;104.306;2023-09-18T11:50:44;10.98;;;5.43;;
68140;SDS011;54941;52.220;104.306;2023-09-18T11:53:11;16.90;;;7.15;;
68140;SDS011;54941;52.220;104.306;2023-09-18T11:55:38;13.82;;;6.13;;
68140;SDS011;54941;52.220;104.306;2023-09-18T11:58:08;12.15;;;7.18;;
68140;SDS011;54941;52.220;104.306;2023-09-18T12:00:34;10.88;;;6.82;;
68140;SDS011;54941;52.220;104.306;2023-09-18T12:03:14;12.50;;;6.22;;
68140;SDS011;54941;52.220;104.306;2023-09-18T12:05:44;11.88;;;6.38;;
68140;SDS011;54941;52.220;104.306;2023-09-18T12:08:11;11.82;;;6.68;;
68140;SDS011;54941;52.220;104.306;2023-09-18T12:10:37;13.38;;;6.68;;
68140;SDS011;54941;52.220;104.306;2023-09-18T12:13:05;14.88;;;6.53;;
68140;SDS011;54941;52.220;104.306;2023-09-18T12:15:32;12.27;;;6.88;;
68140;SDS011;54941;52.220;104.306;2023-09-18T12:18:04;14.32;;;6.78;;
68140;SDS011;54941;52.220;104.306;2023-09-18T12:20:37;17.40;;;7.68;;
68140;SDS011;54941;52.220;104.306;2023-09-18T12:23:13;17.48;;;8.93;;
68140;SDS011;54941;52.220;104.306;2023-09-18T12:29:09;17.77;;;9.27;;
68140;SDS011;54941;52.220;104.306;2023-09-18T12:31:35;13.48;;;8.02;;
68140;SDS011;54941;52.220;104.306;2023-09-18T12:34:02;20.83;;;10.88;;
68140;SDS011;54941;52.220;104.306;2023-09-18T12:36:30;29.70;;;15.77;;
68140;SDS011;54941;52.220;104.306;2023-09-18T12:39:00;37.35;;;19.45;;
68140;SDS011;54941;52.220;104.306;2023-09-18T12:41:26;40.97;;;23.20;;
68140;SDS011;54941;52.220;104.306;2023-09-18T12:43:53;43.45;;;25.52;;
68140;SDS011;54941;52.220;104.306;2023-09-18T12:46:20;41.83;;;22.38;;
68140;SDS011;54941;52.220;104.306;2023-09-18T12:48:47;29.85;;;17.20;;
68140;SDS011;54941;52.220;104.306;2023-09-18T12:51:14;35.42;;;20.23;;
68140;SDS011;54941;52.220;104.306;2023-09-18T12:53:42;30.73;;;15.90;;
68140;SDS011;54941;52.220;104.306;2023-09-18T12:56:08;36.28;;;21.48;;
68140;SDS011;54941;52.220;104.306;2023-09-18T12:58:36;27.60;;;15.35;;
68140;SDS011;54941;52.220;104.306;2023-09-18T13:01:05;24.73;;;14.20;;
68140;SDS011;54941;52.220;104.306;2023-09-18T13:03:32;27.02;;;15.73;;
68140;SDS011;54941;52.220;104.306;2023-09-18T13:06:06;23.80;;;14.20;;
68140;SDS011;54941;52.220;104.306;2023-09-18T13:08:33;21.92;;;13.80;;
68140;SDS011;54941;52.220;104.306;2023-09-18T13:11:01;29.48;;;16.15;;
68140;SDS011;54941;52.220;104.306;2023-09-18T13:13:28;18.50;;;12.02;;
68140;SDS011;54941;52.220;104.306;2023-09-18T13:15:56;18.08;;;10.82;;
68140;SDS011;54941;52.220;104.306;2023-09-18T13:18:23;18.50;;;11.45;;
68140;SDS011;54941;52.220;104.306;2023-09-18T13:20:50;19.52;;;10.68;;
68140;SDS011;54941;52.220;104.306;2023-09-18T13:23:17;20.02;;;11.27;;
68140;SDS011;54941;52.220;104.306;2023-09-18T13:25:43;23.42;;;12.95;;
68140;SDS011;54941;52.220;104.306;2023-09-18T13:28:12;18.40;;;11.35;;
68140;SDS011;54941;52.220;104.306;2023-09-18T13:30:41;20.83;;;14.07;;
68140;SDS011;54941;52.220;104.306;2023-09-18T13:33:09;21.08;;;12.20;;
68140;SDS011;54941;52.220;104.306;2023-09-18T13:35:40;21.27;;;12.98;;
68140;SDS011;54941;52.220;104.306;2023-09-18T13:38:08;20.60;;;14.30;;
68140;SDS011;54941;52.220;104.306;2023-09-18T13:40:35;14.80;;;10.73;;
68140;SDS011;54941;52.220;104.306;2023-09-18T13:43:01;18.50;;;10.60;;
68140;SDS011;54941;52.220;104.306;2023-09-18T13:45:29;15.27;;;9.35;;
68140;SDS011;54941;52.220;104.306;2023-09-18T13:47:58;11.07;;;7.68;;
68140;SDS011;54941;52.220;104.306;2023-09-18T13:50:26;14.75;;;8.80;;
68140;SDS011;54941;52.220;104.306;2023-09-18T13:52:53;16.73;;;10.52;;
68140;SDS011;54941;52.220;104.306;2023-09-18T13:55:20;18.05;;;12.07;;
68140;SDS011;54941;52.220;104.306;2023-09-18T13:57:47;17.38;;;11.93;;
68140;SDS011;54941;52.220;104.306;2023-09-18T14:00:14;25.35;;;15.25;;
68140;SDS011;54941;52.220;104.306;2023-09-18T14:02:43;29.38;;;19.00;;
68140;SDS011;54941;52.220;104.306;2023-09-18T14:05:09;28.60;;;19.15;;
68140;SDS011;54941;52.220;104.306;2023-09-18T14:07:36;23.27;;;15.52;;
68140;SDS011;54941;52.220;104.306;2023-09-18T14:10:04;20.23;;;14.80;;
68140;SDS011;54941;52.220;104.306;2023-09-18T14:12:32;18.85;;;13.43;;
68140;SDS011;54941;52.220;104.306;2023-09-18T14:14:58;14.90;;;9.10;;
68140;SDS011;54941;52.220;104.306;2023-09-18T14:17:24;14.25;;;8.18;;
68140;SDS011;54941;52.220;104.306;2023-09-18T14:19:52;15.63;;;9.20;;
68140;SDS011;54941;52.220;104.306;2023-09-18T14:22:19;13.80;;;9.07;;
68140;SDS011;54941;52.220;104.306;2023-09-18T14:24:45;12.63;;;8.60;;
68140;SDS011;54941;52.220;104.306;2023-09-18T14:27:11;14.05;;;8.32;;
68140;SDS011;54941;52.220;104.306;2023-09-18T14:29:38;15.02;;;7.88;;
68140;SDS011;54941;52.220;104.306;2023-09-18T14:32:05;15.35;;;10.75;;
68140;SDS011;54941;52.220;104.306;2023-09-18T14:34:31;18.75;;;11.65;;